Terminal Aerodrome Forecast
Issued by NWS Twin Cities, MN

Home | Current Version | Previous Version | Graphics & Text | Print | Product List | Glossary Off
Versions: 1 2 3 4 5 6 7 8 9 10 11 12 13 14 15

000
FTUS43 KMPX 200500
TAFEAU
TAF
KEAU 200525Z 2006/2106 18008KT P6SM VCSH SCT035 OVC060
      TEMPO 2006/2010 4SM -SHRA BR
     FM201000 20003KT P6SM VCSH OVC060
     FM201400 21004KT P6SM SCT060 BKN200
     FM202100 06004KT P6SM SCT060
     FM210100 07002KT P6SM BKN060=

USA.gov is the U.S. government's official web portal to all federal, state and local government web resources and services.